sensor_id;sensor_type;location;lat;lon;timestamp;P1;durP1;ratioP1;P2;durP2;ratioP2
48911;SDS011;34722;52.108;5.044;2022-11-11T02:18:50;85.40;;;38.72;;
48911;SDS011;34722;52.108;5.044;2022-11-11T02:21:19;73.53;;;34.22;;
48911;SDS011;34722;52.108;5.044;2022-11-11T02:26:33;78.60;;;35.63;;
48911;SDS011;34722;52.108;5.044;2022-11-11T02:29:01;79.78;;;36.33;;
48911;SDS011;34722;52.108;5.044;2022-11-11T02:31:31;89.30;;;39.95;;
48911;SDS011;34722;52.108;5.044;2022-11-11T02:33:57;85.68;;;38.75;;
48911;SDS011;34722;52.108;5.044;2022-11-11T02:36:23;80.20;;;34.25;;
48911;SDS011;34722;52.108;5.044;2022-11-11T02:38:49;90.35;;;39.45;;
48911;SDS011;34722;52.108;5.044;2022-11-11T02:41:15;88.55;;;37.00;;
48911;SDS011;34722;52.108;5.044;2022-11-11T02:43:59;86.55;;;38.15;;
48911;SDS011;34722;52.108;5.044;2022-11-11T02:46:26;83.03;;;36.75;;
48911;SDS011;34722;52.108;5.044;2022-11-11T02:48:51;82.95;;;38.35;;
48911;SDS011;34722;52.108;5.044;2022-11-11T02:51:17;87.15;;;38.65;;
48911;SDS011;34722;52.108;5.044;2022-11-11T02:53:43;78.30;;;37.22;;
48911;SDS011;34722;52.108;5.044;2022-11-11T02:56:09;80.90;;;37.67;;
48911;SDS011;34722;52.108;5.044;2022-11-11T02:58:34;89.85;;;37.90;;
48911;SDS011;34722;52.108;5.044;2022-11-11T03:01:00;86.68;;;37.92;;
48911;SDS011;34722;52.108;5.044;2022-11-11T03:03:25;96.88;;;39.92;;
48911;SDS011;34722;52.108;5.044;2022-11-11T03:05:51;90.80;;;36.70;;
48911;SDS011;34722;52.108;5.044;2022-11-11T03:08:17;79.65;;;35.72;;
48911;SDS011;34722;52.108;5.044;2022-11-11T03:10:42;84.38;;;34.53;;
48911;SDS011;34722;52.108;5.044;2022-11-11T03:13:08;79.18;;;37.15;;
48911;SDS011;34722;52.108;5.044;2022-11-11T03:15:34;78.95;;;37.10;;
48911;SDS011;34722;52.108;5.044;2022-11-11T03:17:59;82.47;;;36.25;;
48911;SDS011;34722;52.108;5.044;2022-11-11T03:20:25;84.72;;;34.85;;
48911;SDS011;34722;52.108;5.044;2022-11-11T03:23:10;74.43;;;36.65;;
48911;SDS011;34722;52.108;5.044;2022-11-11T03:25:39;79.93;;;35.55;;
48911;SDS011;34722;52.108;5.044;2022-11-11T03:28:07;84.47;;;34.97;;
48911;SDS011;34722;52.108;5.044;2022-11-11T03:30:49;75.85;;;35.38;;
48911;SDS011;34722;52.108;5.044;2022-11-11T03:33:15;74.55;;;35.00;;
48911;SDS011;34722;52.108;5.044;2022-11-11T03:35:42;84.82;;;37.92;;
48911;SDS011;34722;52.108;5.044;2022-11-11T03:38:11;85.53;;;34.80;;
48911;SDS011;34722;52.108;5.044;2022-11-11T03:40:47;82.35;;;37.25;;
48911;SDS011;34722;52.108;5.044;2022-11-11T03:43:16;83.30;;;35.30;;
48911;SDS011;34722;52.108;5.044;2022-11-11T03:45:43;79.63;;;35.72;;
48911;SDS011;34722;52.108;5.044;2022-11-11T03:48:09;80.07;;;36.33;;
48911;SDS011;34722;52.108;5.044;2022-11-11T03:50:36;86.88;;;37.05;;
48911;SDS011;34722;52.108;5.044;2022-11-11T03:53:02;89.60;;;36.50;;
48911;SDS011;34722;52.108;5.044;2022-11-11T03:55:28;85.13;;;39.03;;
48911;SDS011;34722;52.108;5.044;2022-11-11T03:57:54;79.80;;;35.55;;
48911;SDS011;34722;52.108;5.044;2022-11-11T04:00:24;79.85;;;36.58;;
48911;SDS011;34722;52.108;5.044;2022-11-11T04:02:51;83.55;;;36.10;;
48911;SDS011;34722;52.108;5.044;2022-11-11T04:05:45;88.03;;;38.63;;
48911;SDS011;34722;52.108;5.044;2022-11-11T04:08:29;88.45;;;36.72;;
48911;SDS011;34722;52.108;5.044;2022-11-11T04:11:14;76.07;;;36.13;;
48911;SDS011;34722;52.108;5.044;2022-11-11T04:13:45;90.95;;;38.45;;
48911;SDS011;34722;52.108;5.044;2022-11-11T04:16:30;84.40;;;37.80;;
48911;SDS011;34722;52.108;5.044;2022-11-11T04:18:56;82.72;;;39.55;;
48911;SDS011;34722;52.108;5.044;2022-11-11T04:21:40;78.43;;;36.85;;
48911;SDS011;34722;52.108;5.044;2022-11-11T04:24:16;82.40;;;36.97;;
48911;SDS011;34722;52.108;5.044;2022-11-11T04:27:05;82.20;;;36.97;;
48911;SDS011;34722;52.108;5.044;2022-11-11T04:29:32;76.65;;;36.80;;
48911;SDS011;34722;52.108;5.044;2022-11-11T04:31:59;79.03;;;36.88;;
48911;SDS011;34722;52.108;5.044;2022-11-11T04:34:45;72.88;;;33.80;;
48911;SDS011;34722;52.108;5.044;2022-11-11T04:37:13;69.38;;;33.80;;
48911;SDS011;34722;52.108;5.044;2022-11-11T04:39:40;71.32;;;32.35;;
48911;SDS011;34722;52.108;5.044;2022-11-11T04:42:24;73.15;;;33.92;;
48911;SDS011;34722;52.108;5.044;2022-11-11T04:44:50;65.03;;;32.60;;
48911;SDS011;34722;52.108;5.044;2022-11-11T04:47:35;67.43;;;34.00;;
48911;SDS011;34722;52.108;5.044;2022-11-11T04:50:00;67.65;;;32.90;;
48911;SDS011;34722;52.108;5.044;2022-11-11T04:52:27;69.13;;;33.28;;
48911;SDS011;34722;52.108;5.044;2022-11-11T04:54:56;69.30;;;33.95;;
48911;SDS011;34722;52.108;5.044;2022-11-11T04:57:46;76.28;;;33.45;;
48911;SDS011;34722;52.108;5.044;2022-11-11T05:00:16;71.22;;;32.90;;
48911;SDS011;34722;52.108;5.044;2022-11-11T05:02:43;74.32;;;34.13;;
48911;SDS011;34722;52.108;5.044;2022-11-11T05:05:28;64.78;;;33.08;;
48911;SDS011;34722;52.108;5.044;2022-11-11T05:08:17;71.68;;;32.28;;
48911;SDS011;34722;52.108;5.044;2022-11-11T05:11:02;75.03;;;33.65;;
48911;SDS011;34722;52.108;5.044;2022-11-11T05:13:28;69.65;;;31.73;;
48911;SDS011;34722;52.108;5.044;2022-11-11T05:16:13;75.15;;;33.78;;
48911;SDS011;34722;52.108;5.044;2022-11-11T05:19:00;71.63;;;33.55;;
48911;SDS011;34722;52.108;5.044;2022-11-11T05:21:44;80.97;;;34.25;;
48911;SDS011;34722;52.108;5.044;2022-11-11T05:24:12;76.88;;;34.22;;
48911;SDS011;34722;52.108;5.044;2022-11-11T05:26:56;71.47;;;32.38;;
48911;SDS011;34722;52.108;5.044;2022-11-11T05:29:21;81.72;;;33.20;;
48911;SDS011;34722;52.108;5.044;2022-11-11T05:31:47;75.15;;;33.20;;
48911;SDS011;34722;52.108;5.044;2022-11-11T05:34:13;73.18;;;32.58;;
48911;SDS011;34722;52.108;5.044;2022-11-11T05:36:38;77.88;;;31.85;;
48911;SDS011;34722;52.108;5.044;2022-11-11T05:39:04;72.50;;;31.67;;
48911;SDS011;34722;52.108;5.044;2022-11-11T05:41:30;75.63;;;32.22;;
48911;SDS011;34722;52.108;5.044;2022-11-11T05:43:56;69.40;;;31.77;;
48911;SDS011;34722;52.108;5.044;2022-11-11T05:46:21;64.78;;;30.83;;
48911;SDS011;34722;52.108;5.044;2022-11-11T05:48:47;67.93;;;29.83;;
48911;SDS011;34722;52.108;5.044;2022-11-11T05:51:32;67.05;;;29.63;;
48911;SDS011;34722;52.108;5.044;2022-11-11T05:53:57;71.97;;;31.70;;
48911;SDS011;34722;52.108;5.044;2022-11-11T05:56:23;62.85;;;30.33;;
48911;SDS011;34722;52.108;5.044;2022-11-11T05:58:49;73.95;;;30.33;;
48911;SDS011;34722;52.108;5.044;2022-11-11T06:01:15;80.28;;;29.77;;
48911;SDS011;34722;52.108;5.044;2022-11-11T06:03:40;66.63;;;28.65;;
48911;SDS011;34722;52.108;5.044;2022-11-11T06:06:06;59.97;;;27.67;;
48911;SDS011;34722;52.108;5.044;2022-11-11T06:08:32;74.07;;;29.73;;
48911;SDS011;34722;52.108;5.044;2022-11-11T06:10:58;63.78;;;27.85;;
48911;SDS011;34722;52.108;5.044;2022-11-11T06:13:23;68.18;;;28.55;;
48911;SDS011;34722;52.108;5.044;2022-11-11T06:15:49;60.38;;;27.40;;
48911;SDS011;34722;52.108;5.044;2022-11-11T06:18:15;61.50;;;27.67;;
48911;SDS011;34722;52.108;5.044;2022-11-11T06:20:40;61.00;;;26.55;;
48911;SDS011;34722;52.108;5.044;2022-11-11T06:23:06;64.00;;;27.95;;
48911;SDS011;34722;52.108;5.044;2022-11-11T06:25:32;62.00;;;28.90;;
48911;SDS011;34722;52.108;5.044;2022-11-11T06:28:17;60.05;;;29.13;;
48911;SDS011;34722;52.108;5.044;2022-11-11T06:30:43;60.45;;;26.48;;
48911;SDS011;34722;52.108;5.044;2022-11-11T06:33:09;71.47;;;27.10;;
48911;SDS011;34722;52.108;5.044;2022-11-11T06:35:36;55.03;;;25.98;;
48911;SDS011;34722;52.108;5.044;2022-11-11T06:38:04;61.55;;;26.67;;
48911;SDS011;34722;52.108;5.044;2022-11-11T06:40:31;57.58;;;26.55;;
48911;SDS011;34722;52.108;5.044;2022-11-11T06:43:00;53.70;;;24.98;;
48911;SDS011;34722;52.108;5.044;2022-11-11T06:45:27;60.53;;;26.55;;
48911;SDS011;34722;52.108;5.044;2022-11-11T06:47:54;61.75;;;27.00;;
48911;SDS011;34722;52.108;5.044;2022-11-11T06:50:20;62.85;;;27.02;;
48911;SDS011;34722;52.108;5.044;2022-11-11T06:52:46;55.38;;;25.40;;
48911;SDS011;34722;52.108;5.044;2022-11-11T06:55:21;49.80;;;23.65;;
48911;SDS011;34722;52.108;5.044;2022-11-11T06:57:47;55.30;;;28.35;;
48911;SDS011;34722;52.108;5.044;2022-11-11T07:00:13;54.33;;;25.08;;
48911;SDS011;34722;52.108;5.044;2022-11-11T07:02:39;54.63;;;24.02;;
48911;SDS011;34722;52.108;5.044;2022-11-11T07:05:05;55.80;;;25.83;;
48911;SDS011;34722;52.108;5.044;2022-11-11T07:07:31;59.25;;;26.52;;
48911;SDS011;34722;52.108;5.044;2022-11-11T07:09:57;57.72;;;29.20;;
48911;SDS011;34722;52.108;5.044;2022-11-11T07:12:22;60.88;;;25.83;;
48911;SDS011;34722;52.108;5.044;2022-11-11T07:14:48;53.42;;;26.48;;
48911;SDS011;34722;52.108;5.044;2022-11-11T07:17:14;56.00;;;27.52;;
48911;SDS011;34722;52.108;5.044;2022-11-11T07:19:39;60.95;;;28.10;;
48911;SDS011;34722;52.108;5.044;2022-11-11T07:22:05;70.30;;;30.63;;
48911;SDS011;34722;52.108;5.044;2022-11-11T07:24:31;62.80;;;27.42;;
48911;SDS011;34722;52.108;5.044;2022-11-11T07:26:56;66.65;;;26.33;;
48911;SDS011;34722;52.108;5.044;2022-11-11T07:29:23;61.28;;;27.25;;
48911;SDS011;34722;52.108;5.044;2022-11-11T07:31:49;53.63;;;24.65;;
48911;SDS011;34722;52.108;5.044;2022-11-11T07:34:15;53.30;;;25.10;;
48911;SDS011;34722;52.108;5.044;2022-11-11T07:36:41;51.67;;;24.33;;
48911;SDS011;34722;52.108;5.044;2022-11-11T07:39:06;53.42;;;22.92;;
48911;SDS011;34722;52.108;5.044;2022-11-11T07:41:32;54.63;;;25.27;;
48911;SDS011;34722;52.108;5.044;2022-11-11T07:43:58;47.97;;;23.00;;
48911;SDS011;34722;52.108;5.044;2022-11-11T07:46:24;53.33;;;23.40;;
48911;SDS011;34722;52.108;5.044;2022-11-11T07:48:50;48.90;;;22.65;;
48911;SDS011;34722;52.108;5.044;2022-11-11T07:51:16;48.97;;;24.30;;
48911;SDS011;34722;52.108;5.044;2022-11-11T07:53:41;50.47;;;22.75;;
48911;SDS011;34722;52.108;5.044;2022-11-11T07:56:07;46.10;;;22.42;;
48911;SDS011;34722;52.108;5.044;2022-11-11T07:58:33;46.70;;;23.55;;
48911;SDS011;34722;52.108;5.044;2022-11-11T08:00:59;48.45;;;22.70;;
48911;SDS011;34722;52.108;5.044;2022-11-11T08:03:25;47.63;;;21.38;;
48911;SDS011;34722;52.108;5.044;2022-11-11T08:05:50;56.28;;;23.77;;
48911;SDS011;34722;52.108;5.044;2022-11-11T08:08:16;46.58;;;22.90;;
48911;SDS011;34722;52.108;5.044;2022-11-11T08:10:43;51.25;;;24.00;;
48911;SDS011;34722;52.108;5.044;2022-11-11T08:13:09;47.58;;;22.73;;
48911;SDS011;34722;52.108;5.044;2022-11-11T08:15:55;39.63;;;19.70;;
48911;SDS011;34722;52.108;5.044;2022-11-11T08:18:23;46.08;;;21.45;;
48911;SDS011;34722;52.108;5.044;2022-11-11T08:20:50;41.92;;;20.27;;
48911;SDS011;34722;52.108;5.044;2022-11-11T08:23:18;43.10;;;21.27;;
48911;SDS011;34722;52.108;5.044;2022-11-11T08:25:56;40.25;;;20.20;;
48911;SDS011;34722;52.108;5.044;2022-11-11T08:28:27;42.20;;;21.85;;
48911;SDS011;34722;52.108;5.044;2022-11-11T08:30:57;40.63;;;19.88;;
48911;SDS011;34722;52.108;5.044;2022-11-11T08:33:31;46.00;;;21.75;;
48911;SDS011;34722;52.108;5.044;2022-11-11T08:35:59;48.35;;;22.27;;
48911;SDS011;34722;52.108;5.044;2022-11-11T08:38:27;46.35;;;21.63;;
48911;SDS011;34722;52.108;5.044;2022-11-11T08:40:53;49.67;;;22.73;;
48911;SDS011;34722;52.108;5.044;2022-11-11T08:43:19;43.25;;;21.77;;
48911;SDS011;34722;52.108;5.044;2022-11-11T08:45:53;44.25;;;21.60;;
48911;SDS011;34722;52.108;5.044;2022-11-11T08:48:23;51.75;;;25.08;;
48911;SDS011;34722;52.108;5.044;2022-11-11T08:50:52;45.95;;;22.30;;
48911;SDS011;34722;52.108;5.044;2022-11-11T08:53:21;50.60;;;25.17;;
48911;SDS011;34722;52.108;5.044;2022-11-11T08:55:47;57.80;;;25.77;;
48911;SDS011;34722;52.108;5.044;2022-11-11T08:58:18;48.22;;;23.83;;
48911;SDS011;34722;52.108;5.044;2022-11-11T09:00:45;47.45;;;24.10;;
48911;SDS011;34722;52.108;5.044;2022-11-11T09:03:11;46.90;;;23.85;;
48911;SDS011;34722;52.108;5.044;2022-11-11T09:05:40;49.25;;;23.20;;
48911;SDS011;34722;52.108;5.044;2022-11-11T09:08:23;48.35;;;23.50;;
48911;SDS011;34722;52.108;5.044;2022-11-11T09:11:01;52.90;;;23.50;;
48911;SDS011;34722;52.108;5.044;2022-11-11T09:13:27;42.78;;;23.10;;
48911;SDS011;34722;52.108;5.044;2022-11-11T09:15:59;60.72;;;24.17;;
48911;SDS011;34722;52.108;5.044;2022-11-11T09:18:27;48.28;;;22.65;;
48911;SDS011;34722;52.108;5.044;2022-11-11T09:21:16;50.05;;;24.52;;
48911;SDS011;34722;52.108;5.044;2022-11-11T09:23:44;49.22;;;23.25;;
48911;SDS011;34722;52.108;5.044;2022-11-11T09:26:10;46.70;;;24.73;;
48911;SDS011;34722;52.108;5.044;2022-11-11T09:28:44;52.45;;;24.63;;
48911;SDS011;34722;52.108;5.044;2022-11-11T09:31:10;48.60;;;24.17;;
48911;SDS011;34722;52.108;5.044;2022-11-11T09:33:36;50.58;;;23.90;;
48911;SDS011;34722;52.108;5.044;2022-11-11T09:36:11;49.83;;;24.35;;
48911;SDS011;34722;52.108;5.044;2022-11-11T09:38:40;51.63;;;24.48;;
48911;SDS011;34722;52.108;5.044;2022-11-11T09:41:19;49.45;;;24.38;;
48911;SDS011;34722;52.108;5.044;2022-11-11T09:47:15;54.75;;;24.20;;
48911;SDS011;34722;52.108;5.044;2022-11-11T09:53:34;43.58;;;21.75;;
48911;SDS011;34722;52.108;5.044;2022-11-11T09:56:08;53.05;;;23.27;;
48911;SDS011;34722;52.108;5.044;2022-11-11T10:01:37;47.20;;;22.23;;
48911;SDS011;34722;52.108;5.044;2022-11-11T10:07:05;49.20;;;22.17;;
48911;SDS011;34722;52.108;5.044;2022-11-11T10:12:09;43.08;;;22.90;;
48911;SDS011;34722;52.108;5.044;2022-11-11T10:14:38;46.45;;;22.42;;
48911;SDS011;34722;52.108;5.044;2022-11-11T10:20:15;40.78;;;21.75;;
48911;SDS011;34722;52.108;5.044;2022-11-11T10:23:02;42.97;;;23.48;;
48911;SDS011;34722;52.108;5.044;2022-11-11T10:25:41;41.05;;;22.42;;
48911;SDS011;34722;52.108;5.044;2022-11-11T10:28:32;42.97;;;20.42;;
48911;SDS011;34722;52.108;5.044;2022-11-11T10:31:15;45.38;;;21.77;;
48911;SDS011;34722;52.108;5.044;2022-11-11T10:33:47;47.47;;;23.90;;
48911;SDS011;34722;52.108;5.044;2022-11-11T10:36:30;44.40;;;23.00;;
48911;SDS011;34722;52.108;5.044;2022-11-11T10:39:00;42.20;;;22.27;;
48911;SDS011;34722;52.108;5.044;2022-11-11T10:41:41;39.85;;;20.60;;
48911;SDS011;34722;52.108;5.044;2022-11-11T10:44:18;43.78;;;20.77;;
48911;SDS011;34722;52.108;5.044;2022-11-11T10:46:59;45.95;;;22.90;;
48911;SDS011;34722;52.108;5.044;2022-11-11T10:49:30;43.38;;;22.27;;
48911;SDS011;34722;52.108;5.044;2022-11-11T10:54:52;43.22;;;23.58;;
48911;SDS011;34722;52.108;5.044;2022-11-11T10:57:28;47.42;;;24.17;;
48911;SDS011;34722;52.108;5.044;2022-11-11T11:00:10;43.42;;;22.60;;
48911;SDS011;34722;52.108;5.044;2022-11-11T11:08:52;41.63;;;21.40;;
48911;SDS011;34722;52.108;5.044;2022-11-11T11:11:34;42.90;;;24.38;;
48911;SDS011;34722;52.108;5.044;2022-11-11T11:50:28;45.95;;;24.80;;
48911;SDS011;34722;52.108;5.044;2022-11-11T11:55:52;42.85;;;24.10;;
48911;SDS011;34722;52.108;5.044;2022-11-11T11:59:02;40.83;;;23.52;;
48911;SDS011;34722;52.108;5.044;2022-11-11T13:59:57;22.75;;;11.80;;
48911;SDS011;34722;52.108;5.044;2022-11-11T14:17:02;16.58;;;10.43;;
48911;SDS011;34722;52.108;5.044;2022-11-11T14:19:30;16.38;;;9.63;;
48911;SDS011;34722;52.108;5.044;2022-11-11T14:21:58;19.65;;;10.13;;
48911;SDS011;34722;52.108;5.044;2022-11-11T14:24:38;14.77;;;10.23;;
48911;SDS011;34722;52.108;5.044;2022-11-11T14:29:37;16.35;;;9.95;;
48911;SDS011;34722;52.108;5.044;2022-11-11T14:57:27;19.15;;;11.25;;
48911;SDS011;34722;52.108;5.044;2022-11-11T15:05:44;22.33;;;10.75;;
48911;SDS011;34722;52.108;5.044;2022-11-11T15:08:22;25.38;;;12.40;;
48911;SDS011;34722;52.108;5.044;2022-11-11T15:21:19;26.13;;;12.35;;
48911;SDS011;34722;52.108;5.044;2022-11-11T15:26:42;22.63;;;12.25;;
48911;SDS011;34722;52.108;5.044;2022-11-11T15:35:21;25.92;;;13.20;;
48911;SDS011;34722;52.108;5.044;2022-11-11T15:38:14;27.75;;;14.88;;
48911;SDS011;34722;52.108;5.044;2022-11-11T15:43:13;26.85;;;13.52;;
48911;SDS011;34722;52.108;5.044;2022-11-11T15:45:44;26.80;;;13.40;;
48911;SDS011;34722;52.108;5.044;2022-11-11T15:48:17;30.00;;;13.75;;
48911;SDS011;34722;52.108;5.044;2022-11-11T15:50:45;25.95;;;13.93;;
48911;SDS011;34722;52.108;5.044;2022-11-11T15:53:12;25.48;;;13.20;;
48911;SDS011;34722;52.108;5.044;2022-11-11T15:55:39;29.08;;;13.93;;
48911;SDS011;34722;52.108;5.044;2022-11-11T15:58:14;28.73;;;14.27;;
48911;SDS011;34722;52.108;5.044;2022-11-11T16:00:57;24.60;;;12.48;;
48911;SDS011;34722;52.108;5.044;2022-11-11T16:03:29;30.33;;;14.27;;
48911;SDS011;34722;52.108;5.044;2022-11-11T16:05:58;26.27;;;15.52;;
48911;SDS011;34722;52.108;5.044;2022-11-11T16:08:26;32.00;;;13.98;;
48911;SDS011;34722;52.108;5.044;2022-11-11T16:10:54;26.42;;;14.25;;
48911;SDS011;34722;52.108;5.044;2022-11-11T16:18:33;27.55;;;14.23;;
48911;SDS011;34722;52.108;5.044;2022-11-11T16:21:25;26.38;;;13.43;;
48911;SDS011;34722;52.108;5.044;2022-11-11T16:24:01;25.63;;;13.20;;
48911;SDS011;34722;52.108;5.044;2022-11-11T16:26:27;27.52;;;13.30;;
48911;SDS011;34722;52.108;5.044;2022-11-11T16:28:57;31.08;;;15.20;;
48911;SDS011;34722;52.108;5.044;2022-11-11T16:33:59;26.67;;;13.70;;
48911;SDS011;34722;52.108;5.044;2022-11-11T16:36:57;29.10;;;13.68;;
48911;SDS011;34722;52.108;5.044;2022-11-11T16:39:34;22.17;;;12.07;;
48911;SDS011;34722;52.108;5.044;2022-11-11T16:42:22;22.73;;;12.80;;
48911;SDS011;34722;52.108;5.044;2022-11-11T16:55:26;26.95;;;14.20;;
48911;SDS011;34722;52.108;5.044;2022-11-11T16:58:15;28.63;;;15.05;;
48911;SDS011;34722;52.108;5.044;2022-11-11T17:00:44;25.23;;;14.00;;
48911;SDS011;34722;52.108;5.044;2022-11-11T17:03:12;22.92;;;12.73;;
48911;SDS011;34722;52.108;5.044;2022-11-11T17:05:56;23.77;;;13.70;;
48911;SDS011;34722;52.108;5.044;2022-11-11T17:11:05;34.42;;;15.35;;
48911;SDS011;34722;52.108;5.044;2022-11-11T17:13:33;31.60;;;14.40;;
48911;SDS011;34722;52.108;5.044;2022-11-11T17:15:59;21.45;;;13.85;;
48911;SDS011;34722;52.108;5.044;2022-11-11T17:18:28;24.25;;;13.52;;
48911;SDS011;34722;52.108;5.044;2022-11-11T17:20:58;26.52;;;13.23;;
48911;SDS011;34722;52.108;5.044;2022-11-11T17:23:25;23.40;;;12.05;;
48911;SDS011;34722;52.108;5.044;2022-11-11T17:25:54;24.55;;;12.13;;
48911;SDS011;34722;52.108;5.044;2022-11-11T17:28:21;19.80;;;11.35;;
48911;SDS011;34722;52.108;5.044;2022-11-11T17:30:48;21.73;;;11.55;;
48911;SDS011;34722;52.108;5.044;2022-11-11T17:33:13;23.33;;;11.82;;
48911;SDS011;34722;52.108;5.044;2022-11-11T17:35:39;22.30;;;11.73;;
48911;SDS011;34722;52.108;5.044;2022-11-11T17:38:13;21.88;;;12.20;;
48911;SDS011;34722;52.108;5.044;2022-11-11T17:40:42;16.92;;;10.35;;
48911;SDS011;34722;52.108;5.044;2022-11-11T17:43:09;21.25;;;10.60;;
48911;SDS011;34722;52.108;5.044;2022-11-11T17:45:35;19.73;;;9.88;;
48911;SDS011;34722;52.108;5.044;2022-11-11T17:48:01;19.83;;;9.57;;
48911;SDS011;34722;52.108;5.044;2022-11-11T17:50:26;20.75;;;9.48;;
48911;SDS011;34722;52.108;5.044;2022-11-11T17:52:55;21.08;;;10.00;;
48911;SDS011;34722;52.108;5.044;2022-11-11T17:55:21;18.58;;;10.07;;
48911;SDS011;34722;52.108;5.044;2022-11-11T17:57:48;18.58;;;11.45;;
48911;SDS011;34722;52.108;5.044;2022-11-11T18:00:14;20.63;;;12.27;;
48911;SDS011;34722;52.108;5.044;2022-11-11T18:02:40;23.90;;;12.55;;
48911;SDS011;34722;52.108;5.044;2022-11-11T18:05:06;23.63;;;10.95;;
48911;SDS011;34722;52.108;5.044;2022-11-11T18:07:32;23.35;;;11.95;;
48911;SDS011;34722;52.108;5.044;2022-11-11T18:09:58;16.73;;;10.25;;
48911;SDS011;34722;52.108;5.044;2022-11-11T18:12:25;23.33;;;13.35;;
48911;SDS011;34722;52.108;5.044;2022-11-11T18:14:51;23.67;;;11.23;;
48911;SDS011;34722;52.108;5.044;2022-11-11T18:17:17;22.27;;;12.55;;
48911;SDS011;34722;52.108;5.044;2022-11-11T18:19:43;19.88;;;11.25;;
48911;SDS011;34722;52.108;5.044;2022-11-11T18:22:08;19.92;;;11.23;;
48911;SDS011;34722;52.108;5.044;2022-11-11T18:24:34;17.80;;;10.75;;
48911;SDS011;34722;52.108;5.044;2022-11-11T18:27:00;23.48;;;10.90;;
48911;SDS011;34722;52.108;5.044;2022-11-11T18:29:25;21.83;;;10.77;;
48911;SDS011;34722;52.108;5.044;2022-11-11T18:31:52;19.02;;;10.40;;
48911;SDS011;34722;52.108;5.044;2022-11-11T18:34:18;17.25;;;10.40;;
48911;SDS011;34722;52.108;5.044;2022-11-11T18:36:44;19.48;;;11.93;;
48911;SDS011;34722;52.108;5.044;2022-11-11T18:39:09;22.90;;;11.50;;
48911;SDS011;34722;52.108;5.044;2022-11-11T18:41:38;24.02;;;14.10;;
48911;SDS011;34722;52.108;5.044;2022-11-11T18:44:03;23.40;;;11.82;;
48911;SDS011;34722;52.108;5.044;2022-11-11T18:46:29;21.23;;;11.93;;
48911;SDS011;34722;52.108;5.044;2022-11-11T18:48:59;34.50;;;14.05;;
48911;SDS011;34722;52.108;5.044;2022-11-11T18:51:26;21.60;;;11.85;;
48911;SDS011;34722;52.108;5.044;2022-11-11T18:53:53;23.50;;;13.27;;
48911;SDS011;34722;52.108;5.044;2022-11-11T18:56:20;20.90;;;12.05;;
48911;SDS011;34722;52.108;5.044;2022-11-11T18:58:50;19.73;;;12.20;;
48911;SDS011;34722;52.108;5.044;2022-11-11T19:01:17;24.77;;;12.23;;
48911;SDS011;34722;52.108;5.044;2022-11-11T19:03:49;20.80;;;12.23;;
48911;SDS011;34722;52.108;5.044;2022-11-11T19:06:16;23.15;;;12.02;;
48911;SDS011;34722;52.108;5.044;2022-11-11T19:08:46;21.92;;;12.85;;
48911;SDS011;34722;52.108;5.044;2022-11-11T19:11:13;22.52;;;12.50;;
48911;SDS011;34722;52.108;5.044;2022-11-11T19:13:39;19.83;;;12.77;;
48911;SDS011;34722;52.108;5.044;2022-11-11T19:18:35;23.10;;;13.35;;
48911;SDS011;34722;52.108;5.044;2022-11-11T19:21:08;27.40;;;13.02;;
48911;SDS011;34722;52.108;5.044;2022-11-11T19:23:41;25.70;;;12.10;;
48911;SDS011;34722;52.108;5.044;2022-11-11T19:26:08;27.08;;;13.80;;
48911;SDS011;34722;52.108;5.044;2022-11-11T19:28:35;22.80;;;13.82;;
48911;SDS011;34722;52.108;5.044;2022-11-11T19:31:08;23.15;;;13.43;;
48911;SDS011;34722;52.108;5.044;2022-11-11T19:33:40;26.17;;;14.18;;
48911;SDS011;34722;52.108;5.044;2022-11-11T19:36:08;27.55;;;14.05;;
48911;SDS011;34722;52.108;5.044;2022-11-11T19:38:36;28.70;;;15.05;;
48911;SDS011;34722;52.108;5.044;2022-11-11T19:41:06;22.58;;;12.95;;
48911;SDS011;34722;52.108;5.044;2022-11-11T19:43:40;26.65;;;15.48;;
48911;SDS011;34722;52.108;5.044;2022-11-11T19:46:07;24.38;;;14.95;;
48911;SDS011;34722;52.108;5.044;2022-11-11T19:48:35;28.48;;;14.77;;
48911;SDS011;34722;52.108;5.044;2022-11-11T19:51:02;29.60;;;15.00;;
48911;SDS011;34722;52.108;5.044;2022-11-11T19:53:28;29.60;;;14.98;;
48911;SDS011;34722;52.108;5.044;2022-11-11T19:55:58;25.65;;;14.77;;
48911;SDS011;34722;52.108;5.044;2022-11-11T19:58:25;26.30;;;15.55;;
48911;SDS011;34722;52.108;5.044;2022-11-11T20:00:51;27.60;;;16.42;;
48911;SDS011;34722;52.108;5.044;2022-11-11T20:03:17;30.75;;;17.15;;
48911;SDS011;34722;52.108;5.044;2022-11-11T20:05:43;29.10;;;16.15;;
48911;SDS011;34722;52.108;5.044;2022-11-11T20:08:08;32.53;;;17.75;;
48911;SDS011;34722;52.108;5.044;2022-11-11T20:10:35;31.35;;;18.85;;
48911;SDS011;34722;52.108;5.044;2022-11-11T20:13:05;35.22;;;19.55;;
48911;SDS011;34722;52.108;5.044;2022-11-11T20:15:31;30.85;;;18.48;;
48911;SDS011;34722;52.108;5.044;2022-11-11T20:18:03;30.77;;;17.75;;
48911;SDS011;34722;52.108;5.044;2022-11-11T20:23:02;34.72;;;19.35;;
48911;SDS011;34722;52.108;5.044;2022-11-11T20:25:35;36.70;;;19.10;;
48911;SDS011;34722;52.108;5.044;2022-11-11T20:28:05;36.63;;;18.37;;
48911;SDS011;34722;52.108;5.044;2022-11-11T20:30:35;42.15;;;20.67;;
48911;SDS011;34722;52.108;5.044;2022-11-11T20:33:05;35.50;;;18.13;;
48911;SDS011;34722;52.108;5.044;2022-11-11T20:39:05;31.77;;;19.95;;
48911;SDS011;34722;52.108;5.044;2022-11-11T20:41:35;34.63;;;20.17;;
48911;SDS011;34722;52.108;5.044;2022-11-11T20:44:01;35.63;;;19.00;;
48911;SDS011;34722;52.108;5.044;2022-11-11T20:46:27;30.88;;;18.88;;
48911;SDS011;34722;52.108;5.044;2022-11-11T20:48:53;33.95;;;19.95;;
48911;SDS011;34722;52.108;5.044;2022-11-11T20:51:23;28.38;;;18.65;;
48911;SDS011;34722;52.108;5.044;2022-11-11T20:53:52;30.57;;;19.20;;
48911;SDS011;34722;52.108;5.044;2022-11-11T20:56:22;39.30;;;21.27;;
48911;SDS011;34722;52.108;5.044;2022-11-11T21:01:47;42.65;;;21.98;;
48911;SDS011;34722;52.108;5.044;2022-11-11T21:04:42;40.97;;;22.55;;
48911;SDS011;34722;52.108;5.044;2022-11-11T21:07:11;45.72;;;21.48;;
48911;SDS011;34722;52.108;5.044;2022-11-11T21:09:37;36.70;;;22.38;;
48911;SDS011;34722;52.108;5.044;2022-11-11T21:12:06;35.08;;;21.25;;
48911;SDS011;34722;52.108;5.044;2022-11-11T21:14:33;39.80;;;23.33;;
48911;SDS011;34722;52.108;5.044;2022-11-11T21:16:59;39.78;;;24.50;;
48911;SDS011;34722;52.108;5.044;2022-11-11T21:19:28;37.85;;;22.05;;
48911;SDS011;34722;52.108;5.044;2022-11-11T21:22:15;44.33;;;23.15;;
48911;SDS011;34722;52.108;5.044;2022-11-11T21:24:48;38.03;;;21.63;;
48911;SDS011;34722;52.108;5.044;2022-11-11T21:27:26;39.03;;;22.58;;
48911;SDS011;34722;52.108;5.044;2022-11-11T21:30:02;38.08;;;22.83;;
48911;SDS011;34722;52.108;5.044;2022-11-11T21:32:28;39.50;;;23.60;;
48911;SDS011;34722;52.108;5.044;2022-11-11T21:35:05;41.20;;;22.83;;
48911;SDS011;34722;52.108;5.044;2022-11-11T21:37:31;41.13;;;23.05;;
48911;SDS011;34722;52.108;5.044;2022-11-11T21:40:02;41.60;;;22.55;;
48911;SDS011;34722;52.108;5.044;2022-11-11T21:42:33;38.50;;;22.40;;
48911;SDS011;34722;52.108;5.044;2022-11-11T21:45:03;38.33;;;23.58;;
48911;SDS011;34722;52.108;5.044;2022-11-11T21:47:29;38.80;;;22.95;;